Time;durP1;ratioP1;P1;durP2;ratioP2;P2;SDS_P1;SDS_P2;PMS_P1;PMS_P2;Temp;Humidity;BMP_temperature;BMP_pressure;BME280_temperature;BME280_humidity;BME280_pressure;Samples;Min_cycle;Max_cycle;Signal;HPM_P1;HPM_P2
2021/08/25 00:01:43;;;;;;;6.35;5.85;;;;;;;21.11;49.30;95906.09;5029521;28;20038;-65
2021/08/25 00:04:10;;;;;;;5.93;5.43;;;;;;;21.14;48.71;95934.34;5031094;28;20026;-66
2021/08/25 00:06:35;;;;;;;6.75;6.13;;;;;;;21.23;48.29;95918.72;5028768;28;20499;-66
2021/08/25 00:09:00;;;;;;;6.30;5.75;;;;;;;21.23;48.22;95916.78;5027848;28;20065;-66
2021/08/25 00:11:25;;;;;;;6.22;5.72;;;;;;;20.97;48.68;95924.69;5029316;28;20131;-66
2021/08/25 00:13:51;;;;;;;5.82;5.40;;;;;;;20.94;48.88;95914.59;5028107;28;20064;-65
2021/08/25 00:16:17;;;;;;;6.05;5.55;;;;;;;21.28;47.94;95927.34;5030640;28;20025;-65
2021/08/25 00:18:43;;;;;;;6.00;5.43;;;;;;;21.00;48.41;95916.66;5028353;28;20041;-66
2021/08/25 00:21:09;;;;;;;6.20;5.70;;;;;;;21.48;47.52;95933.59;5028668;28;20040;-65
2021/08/25 00:23:34;;;;;;;6.72;6.13;;;;;;;21.08;47.94;95911.41;5028921;28;20028;-66
2021/08/25 00:26:00;;;;;;;5.60;5.20;;;;;;;21.49;47.36;95918.13;5027404;28;20041;-66
2021/08/25 00:28:25;;;;;;;6.65;5.95;;;;;;;21.08;47.88;95897.88;5028830;28;20026;-66
2021/08/25 00:30:51;;;;;;;6.57;6.03;;;;;;;21.29;47.55;95912.69;5030932;28;20017;-67
2021/08/25 00:33:16;;;;;;;6.00;5.50;;;;;;;21.41;47.51;95916.44;5028884;28;20046;-66
2021/08/25 00:35:41;;;;;;;6.13;5.70;;;;;;;21.35;47.30;95905.09;5028628;28;20158;-65
2021/08/25 00:38:07;;;;;;;6.55;6.10;;;;;;;21.32;47.50;95908.50;5028196;28;20426;-66
2021/08/25 00:40:32;;;;;;;5.88;4.97;;;;;;;21.33;47.34;95906.59;5028664;28;20022;-66
2021/08/25 00:43:09;;;;;;;6.47;5.88;;;;;;;21.48;47.12;95898.41;5030697;28;20442;-66
2021/08/25 00:45:44;;;;;;;7.07;6.38;;;;;;;21.16;47.70;95911.22;5028279;28;20087;-65
2021/08/25 00:48:14;;;;;;;9.07;6.13;;;;;;;21.21;47.62;95908.25;5028791;28;20041;-65
2021/08/25 00:50:40;;;;;;;6.72;6.10;;;;;;;21.19;47.50;95902.41;5028497;28;20050;-66
2021/08/25 00:53:06;;;;;;;7.03;6.43;;;;;;;20.83;48.08;95903.53;5027884;28;20068;-66
2021/08/25 00:55:35;;;;;;;7.00;6.30;;;;;;;21.21;47.42;95916.38;5028135;28;20021;-65
2021/08/25 00:58:01;;;;;;;9.20;6.22;;;;;;;20.63;48.67;95901.91;5030223;28;20053;-66
2021/08/25 01:00:26;;;;;;;6.40;5.90;;;;;;;21.10;47.93;95914.56;5028353;28;20499;-66
2021/08/25 01:02:58;;;;;;;7.25;6.65;;;;;;;20.60;49.47;95894.47;5028086;28;20050;-65
2021/08/25 01:05:23;;;;;;;8.90;8.02;;;;;;;20.68;49.80;95893.53;5028158;28;20064;-65
2021/08/25 01:07:49;;;;;;;8.23;7.45;;;;;;;20.92;49.57;95898.69;5027543;28;20065;-65
2021/08/25 01:10:27;;;;;;;9.07;8.38;;;;;;;21.08;49.58;95909.50;5030106;28;20087;-65
2021/08/25 01:12:56;;;;;;;8.73;8.13;;;;;;;20.67;50.80;95905.44;5028458;28;20116;-66
2021/08/25 01:15:22;;;;;;;8.73;8.02;;;;;;;20.61;50.98;95909.56;5027963;28;20034;-65
2021/08/25 01:17:51;;;;;;;10.80;7.97;;;;;;;20.16;51.82;95889.09;5027944;28;20510;-66
2021/08/25 01:20:21;;;;;;;8.68;7.95;;;;;;;19.92;52.24;95881.94;5026809;28;20115;-65
2021/08/25 01:22:46;;;;;;;8.40;7.70;;;;;;;20.53;51.22;95888.91;5033052;28;20069;-66
2021/08/25 01:25:12;;;;;;;8.73;8.02;;;;;;;20.13;52.40;95898.69;5029628;28;20135;-65
2021/08/25 01:27:41;;;;;;;8.32;7.68;;;;;;;20.55;51.68;95902.84;5027891;28;20041;-65
2021/08/25 01:30:07;;;;;;;8.98;8.18;;;;;;;21.03;50.13;95893.53;5027853;28;20118;-66
2021/08/25 01:32:37;;;;;;;9.27;8.48;;;;;;;20.68;50.76;95888.13;5027952;28;20491;-65
2021/08/25 01:35:03;;;;;;;8.35;7.65;;;;;;;20.41;51.51;95892.44;5027680;28;20131;-66
2021/08/25 01:37:28;;;;;;;9.48;8.65;;;;;;;20.16;52.60;95900.69;5027358;28;20112;-66
2021/08/25 01:39:55;;;;;;;8.90;8.30;;;;;;;19.71;53.18;95882.94;5029807;28;20466;-65
2021/08/25 01:42:21;;;;;;;8.90;8.23;;;;;;;20.04;52.73;95889.97;5027845;28;20044;-66
2021/08/25 01:44:48;;;;;;;9.57;8.70;;;;;;;19.63;53.55;95877.66;5027765;28;20037;-65
2021/08/25 01:47:14;;;;;;;8.98;8.10;;;;;;;19.43;54.46;95880.19;5027815;28;20195;-66
2021/08/25 01:49:39;;;;;;;8.75;8.05;;;;;;;19.60;54.06;95883.75;5027798;28;20049;-65
2021/08/25 01:52:05;;;;;;;9.43;8.63;;;;;;;19.91;53.31;95883.84;5029407;28;20025;-65
2021/08/25 01:54:31;;;;;;;9.02;8.30;;;;;;;20.20;52.08;95868.38;5027350;28;20172;-65
2021/08/25 01:56:57;;;;;;;9.70;8.68;;;;;;;20.26;51.81;95867.75;5027620;28;20492;-65
2021/08/25 01:59:22;;;;;;;9.25;8.50;;;;;;;19.99;52.26;95868.59;5027671;28;20060;-66
2021/08/25 02:01:48;;;;;;;8.52;7.82;;;;;;;20.60;50.71;95868.22;5027950;28;20160;-66
2021/08/25 02:04:13;;;;;;;9.05;8.35;;;;;;;20.26;51.48;95858.88;5029592;28;20021;-66
2021/08/25 02:06:39;;;;;;;9.40;8.70;;;;;;;19.80;52.59;95861.16;5027063;28;20495;-65
2021/08/25 02:09:04;;;;;;;9.88;9.07;;;;;;;20.00;51.89;95853.97;5027481;28;20108;-65
2021/08/25 02:11:30;;;;;;;9.75;8.95;;;;;;;20.19;51.53;95854.09;5027698;28;20119;-65
2021/08/25 02:13:55;;;;;;;8.95;8.25;;;;;;;19.91;51.70;95835.25;5027553;28;20047;-66
2021/08/25 02:16:21;;;;;;;10.38;9.25;;;;;;;20.28;51.31;95847.75;5029308;28;20026;-65
2021/08/25 02:18:46;;;;;;;11.48;10.38;;;;;;;20.13;51.43;95847.38;5027790;28;20040;-65
2021/08/25 02:21:12;;;;;;;10.25;9.45;;;;;;;19.95;51.99;95840.72;5027704;28;20048;-65
2021/08/25 02:23:37;;;;;;;9.77;8.98;;;;;;;19.84;52.04;95839.66;5025500;28;20534;-66
2021/08/25 02:26:03;;;;;;;10.95;10.07;;;;;;;19.86;52.03;95832.81;5025673;28;20037;-67
2021/08/25 02:28:28;;;;;;;10.60;9.70;;;;;;;19.97;51.41;95819.59;5027627;28;20410;-65
2021/08/25 02:30:53;;;;;;;10.23;9.43;;;;;;;19.99;51.60;95826.19;5029805;28;20022;-66
2021/08/25 02:33:19;;;;;;;11.25;10.23;;;;;;;19.97;51.66;95819.59;5027559;28;20516;-65
2021/08/25 02:35:44;;;;;;;12.55;11.55;;;;;;;19.81;52.07;95813.34;5027126;28;20030;-65
2021/08/25 02:38:10;;;;;;;12.30;11.23;;;;;;;19.75;52.52;95815.53;5026902;28;20136;-66
2021/08/25 02:40:35;;;;;;;11.95;10.85;;;;;;;19.52;53.37;95819.91;5027331;28;20026;-66
2021/08/25 02:43:01;;;;;;;12.65;11.48;;;;;;;19.44;53.18;95810.81;5032589;28;20028;-65
2021/08/25 02:45:26;;;;;;;11.70;10.85;;;;;;;19.63;52.96;95804.81;5030723;28;20063;-66
2021/08/25 02:47:51;;;;;;;12.18;11.18;;;;;;;19.45;52.94;95807.00;5030865;28;20076;-65
2021/08/25 02:50:17;;;;;;;13.30;12.07;;;;;;;19.13;54.39;95820.38;5030768;28;20049;-65
2021/08/25 02:52:42;;;;;;;14.20;12.10;;;;;;;18.86;55.14;95831.91;5030357;28;20049;-66
2021/08/25 02:55:08;;;;;;;13.45;12.20;;;;;;;18.98;54.46;95820.31;5031319;28;20026;-65
2021/08/25 02:57:33;;;;;;;13.38;12.27;;;;;;;19.15;54.19;95820.84;5028222;28;20045;-65
2021/08/25 02:59:59;;;;;;;13.95;12.48;;;;;;;18.54;55.67;95818.22;5030757;28;20030;-65
2021/08/25 03:02:24;;;;;;;14.27;12.82;;;;;;;19.05;54.58;95815.13;5030507;28;20045;-65
2021/08/25 03:04:49;;;;;;;13.35;12.15;;;;;;;19.31;53.46;95817.41;5030517;28;20738;-65
2021/08/25 03:07:15;;;;;;;14.07;12.68;;;;;;;19.16;54.47;95830.47;5031792;28;20025;-65
2021/08/25 03:09:40;;;;;;;13.85;12.75;;;;;;;19.05;54.71;95824.00;5030246;28;20048;-66
2021/08/25 03:12:06;;;;;;;14.48;13.13;;;;;;;19.33;53.71;95818.63;5030426;28;20045;-66
2021/08/25 03:14:32;;;;;;;15.05;13.60;;;;;;;19.21;53.93;95814.06;5045389;28;20448;-66
2021/08/25 03:16:57;;;;;;;17.52;14.02;;;;;;;18.82;54.77;95820.22;5030164;28;20030;-64
2021/08/25 03:19:23;;;;;;;15.52;14.15;;;;;;;19.01;54.49;95822.31;5032250;28;20029;-64
2021/08/25 03:21:48;;;;;;;14.15;13.02;;;;;;;18.72;55.09;95818.78;5028890;28;20080;-63
2021/08/25 03:24:13;;;;;;;15.45;14.15;;;;;;;18.55;55.36;95819.78;5028360;28;20037;-63
2021/08/25 03:26:39;;;;;;;16.20;14.77;;;;;;;18.76;55.23;95822.38;5029859;28;20052;-64
2021/08/25 03:29:04;;;;;;;15.90;14.27;;;;;;;18.83;54.96;95825.25;5045448;28;20087;-64
2021/08/25 03:31:30;;;;;;;16.08;14.13;;;;;;;18.66;55.52;95828.19;5030194;28;20060;-63
2021/08/25 03:33:55;;;;;;;16.70;15.32;;;;;;;18.47;55.70;95814.50;5031714;28;20408;-64
2021/08/25 03:36:21;;;;;;;16.05;14.65;;;;;;;18.69;55.26;95808.69;5029562;28;20044;-64
2021/08/25 03:38:46;;;;;;;17.50;15.88;;;;;;;18.49;55.46;95804.19;5029422;28;20072;-65
2021/08/25 03:41:11;;;;;;;15.63;14.23;;;;;;;17.92;57.41;95806.63;5029780;28;20076;-64
2021/08/25 03:43:37;;;;;;;15.50;14.10;;;;;;;18.16;56.56;95813.94;5029784;28;20025;-64
2021/08/25 03:46:02;;;;;;;14.88;13.60;;;;;;;18.24;56.30;95806.88;5029848;28;20049;-64
2021/08/25 03:48:28;;;;;;;15.43;14.15;;;;;;;18.14;56.55;95813.50;5029788;28;20510;-63
2021/08/25 03:50:53;;;;;;;14.82;13.52;;;;;;;18.34;56.10;95808.34;5028321;28;20049;-64
2021/08/25 03:53:19;;;;;;;14.80;13.50;;;;;;;18.15;56.25;95800.81;5028846;28;20045;-63
2021/08/25 03:55:44;;;;;;;17.15;14.10;;;;;;;17.97;56.74;95799.47;5027800;28;20056;-63
2021/08/25 03:58:09;;;;;;;15.70;14.32;;;;;;;17.91;56.73;95802.38;5030059;28;20022;-63
2021/08/25 04:00:35;;;;;;;14.65;13.45;;;;;;;18.22;56.21;95800.25;5029657;28;20041;-63
2021/08/25 04:03:00;;;;;;;15.05;13.68;;;;;;;18.28;55.66;95798.94;5029495;28;20096;-63
2021/08/25 04:05:26;;;;;;;17.30;15.32;;;;;;;18.16;56.00;95792.41;5029153;28;20045;-63
2021/08/25 04:07:51;;;;;;;16.52;14.98;;;;;;;18.58;54.81;95811.03;5028532;28;20107;-63
2021/08/25 04:10:16;;;;;;;14.95;13.65;;;;;;;18.46;54.94;95805.63;5046423;28;20368;-63
2021/08/25 04:12:42;;;;;;;18.80;14.70;;;;;;;18.34;55.17;95800.28;5029324;28;20037;-63
2021/08/25 04:15:08;;;;;;;16.50;14.60;;;;;;;18.16;55.98;95800.47;5029163;28;20168;-63
2021/08/25 04:17:33;;;;;;;15.77;14.38;;;;;;;18.10;56.00;95801.03;5028998;28;20048;-63
2021/08/25 04:19:58;;;;;;;14.45;13.15;;;;;;;18.20;55.98;95800.59;5029256;28;20079;-66
2021/08/25 04:22:24;;;;;;;15.45;14.15;;;;;;;17.84;56.77;95785.97;5027092;28;20021;-63
2021/08/25 04:24:49;;;;;;;15.05;13.63;;;;;;;17.64;57.89;95792.97;5029061;28;20010;-62
2021/08/25 04:27:15;;;;;;;16.73;14.75;;;;;;;17.85;57.24;95790.25;5028724;28;20084;-63
2021/08/25 04:29:40;;;;;;;18.08;16.27;;;;;;;18.14;56.22;95788.47;5029068;28;20502;-62
2021/08/25 04:32:06;;;;;;;16.80;15.27;;;;;;;18.15;56.00;95790.84;5028897;28;20391;-63
2021/08/25 04:34:31;;;;;;;19.17;16.98;;;;;;;17.86;56.82;95780.25;5028970;28;20024;-62
2021/08/25 04:36:57;;;;;;;21.88;17.85;;;;;;;18.04;56.22;95770.88;5030749;28;20154;-62
2021/08/25 04:39:22;;;;;;;17.20;15.60;;;;;;;17.63;57.55;95785.25;5028602;28;20376;-63
2021/08/25 04:41:47;;;;;;;17.73;16.05;;;;;;;17.93;56.55;95781.28;5028775;28;20432;-62
2021/08/25 04:44:12;;;;;;;18.73;16.70;;;;;;;18.00;56.71;95793.41;5028601;28;20099;-63
2021/08/25 04:46:38;;;;;;;18.10;16.38;;;;;;;18.03;56.47;95793.53;5028415;28;20056;-64
2021/08/25 04:49:03;;;;;;;16.23;14.82;;;;;;;18.31;55.67;95782.06;5030242;28;20034;-63
2021/08/25 04:51:28;;;;;;;16.42;14.93;;;;;;;18.11;56.45;95789.91;5028458;28;20048;-62
2021/08/25 04:53:54;;;;;;;15.57;14.05;;;;;;;18.13;56.28;95800.38;5027992;28;20087;-64
2021/08/25 04:56:19;;;;;;;15.90;14.25;;;;;;;18.42;55.76;95796.66;5028089;28;20065;-65
2021/08/25 04:58:44;;;;;;;14.32;13.00;;;;;;;18.54;55.24;95793.19;5028536;28;20059;-64
2021/08/25 05:01:10;;;;;;;13.65;12.45;;;;;;;18.30;55.85;95773.22;5030364;28;20428;-65
2021/08/25 05:03:36;;;;;;;12.90;11.80;;;;;;;18.35;55.75;95780.28;5028298;28;20099;-65
2021/08/25 05:06:09;;;;;;;12.02;11.02;;;;;;;18.50;55.29;95792.28;5027747;28;20131;-63
2021/08/25 05:08:35;;;;;;;13.68;12.45;;;;;;;18.73;54.77;95792.59;5035189;28;20045;-62
2021/08/25 05:11:00;;;;;;;12.73;11.63;;;;;;;18.84;54.36;95791.81;5028497;28;20041;-62
2021/08/25 05:13:25;;;;;;;14.73;12.43;;;;;;;18.74;54.30;95794.19;5028310;28;20029;-62
2021/08/25 05:15:51;;;;;;;13.27;11.98;;;;;;;19.00;54.07;95781.09;5029847;28;20028;-63
2021/08/25 05:18:16;;;;;;;13.40;12.27;;;;;;;19.01;53.76;95773.78;5028311;28;20088;-62
2021/08/25 05:20:42;;;;;;;12.75;11.75;;;;;;;18.92;53.71;95776.63;5027717;28;20038;-63
2021/08/25 05:23:07;;;;;;;13.65;12.55;;;;;;;19.02;53.82;95786.94;5020609;28;20045;-62
2021/08/25 05:25:32;;;;;;;14.05;12.80;;;;;;;18.60;53.87;95760.28;5027502;28;20084;-63
2021/08/25 05:27:58;;;;;;;14.23;12.75;;;;;;;18.62;54.58;95790.34;5028637;28;20063;-63
2021/08/25 05:30:23;;;;;;;12.40;11.18;;;;;;;18.81;54.11;95794.41;5028223;28;20113;-63
2021/08/25 05:32:52;;;;;;;13.77;12.45;;;;;;;18.70;54.25;95789.47;5027924;28;20083;-64
2021/08/25 05:35:22;;;;;;;11.73;10.65;;;;;;;18.85;53.29;95789.91;5028007;28;20036;-63
2021/08/25 05:37:49;;;;;;;11.80;10.80;;;;;;;18.88;53.26;95781.13;5027384;28;20038;-65
2021/08/25 05:40:16;;;;;;;12.35;10.65;;;;;;;18.95;53.33;95794.81;5028394;28;20032;-68
2021/08/25 05:42:42;;;;;;;11.57;10.63;;;;;;;18.87;53.37;95791.13;5028089;28;20040;-68
2021/08/25 05:45:09;;;;;;;10.77;9.93;;;;;;;19.02;53.27;95795.00;5028044;28;20033;-66
2021/08/25 05:47:35;;;;;;;11.13;10.15;;;;;;;18.89;53.30;95786.19;5027932;28;20034;-67
2021/08/25 05:50:00;;;;;;;10.98;9.85;;;;;;;19.20;52.68;95799.00;5027848;28;20044;-64
2021/08/25 05:52:26;;;;;;;10.88;9.88;;;;;;;19.15;52.99;95788.47;5027459;28;20494;-64
2021/08/25 05:54:51;;;;;;;10.60;9.70;;;;;;;18.17;54.14;95739.34;5029201;28;20034;-67
2021/08/25 05:57:16;;;;;;;10.80;9.82;;;;;;;19.19;53.80;95761.56;5026446;28;20495;-61
2021/08/25 05:59:42;;;;;;;9.90;8.98;;;;;;;19.31;53.04;95776.94;5027909;28;20084;-61
2021/08/25 06:02:07;;;;;;;12.77;8.77;;;;;;;19.96;51.39;95796.38;5043073;28;20041;-60
2021/08/25 06:04:33;;;;;;;10.60;8.95;;;;;;;20.31;49.43;95782.97;5026319;28;20017;-68
2021/08/25 06:06:58;;;;;;;9.15;8.35;;;;;;;20.43;49.58;95790.97;5029562;28;20028;-62
2021/08/25 06:09:23;;;;;;;9.25;8.50;;;;;;;20.26;50.03;95792.13;5027274;28;20049;-66
2021/08/25 06:11:49;;;;;;;10.40;9.18;;;;;;;20.22;50.09;95799.38;5027517;28;20037;-64
2021/08/25 06:14:14;;;;;;;9.90;8.18;;;;;;;20.40;50.27;95788.19;5027469;28;20046;-64
2021/08/25 06:16:42;;;;;;;8.85;8.07;;;;;;;20.58;48.87;95781.31;5027611;28;20025;-63
2021/08/25 06:19:07;;;;;;;8.57;7.75;;;;;;;20.49;48.45;95786.13;5033058;28;20443;-63
2021/08/25 06:21:33;;;;;;;10.25;7.60;;;;;;;20.53;48.57;95797.81;5031408;28;20045;-63
2021/08/25 06:23:58;;;;;;;8.27;7.30;;;;;;;20.67;48.50;95805.44;5031002;28;20022;-63
2021/08/25 06:26:23;;;;;;;8.40;7.70;;;;;;;20.41;47.85;95781.66;5030566;28;20045;-65
2021/08/25 06:28:49;;;;;;;7.20;6.57;;;;;;;19.77;49.82;95790.91;5031171;28;20045;-64
2021/08/25 06:31:14;;;;;;;10.07;7.50;;;;;;;20.14;48.85;95789.53;5032500;28;20116;-67
2021/08/25 06:33:40;;;;;;;8.00;7.30;;;;;;;20.05;49.18;95788.13;5030657;28;20453;-73
2021/08/25 06:36:05;;;;;;;7.72;7.03;;;;;;;20.33;48.80;95785.34;5029186;28;20495;-66
2021/08/25 06:38:30;;;;;;;8.10;6.13;;;;;;;20.84;47.92;95782.63;5030579;28;20029;-71
2021/08/25 06:40:56;;;;;;;6.20;5.60;;;;;;;20.56;48.03;95794.38;5046036;28;20384;-69
2021/08/25 06:43:21;;;;;;;7.15;6.45;;;;;;;19.73;49.34;95780.78;5031378;28;20411;-67
2021/08/25 06:45:46;;;;;;;8.00;6.90;;;;;;;20.60;47.46;95779.03;5029309;28;20830;-66
2021/08/25 06:48:12;;;;;;;8.10;5.90;;;;;;;20.51;47.84;95791.94;5031008;28;20065;-66
2021/08/25 06:50:37;;;;;;;7.28;5.55;;;;;;;20.26;48.42;95780.53;5030559;28;20041;-66
2021/08/25 06:53:02;;;;;;;7.78;5.57;;;;;;;20.41;47.27;95771.63;5030458;28;20403;-67
2021/08/25 06:55:28;;;;;;;6.90;5.78;;;;;;;20.59;47.75;95788.28;5030146;28;20025;-67
2021/08/25 06:57:53;;;;;;;6.43;5.32;;;;;;;20.62;47.19;95781.38;5032550;28;20574;-67
2021/08/25 07:00:18;;;;;;;5.53;5.05;;;;;;;20.89;46.61;95774.25;5030883;28;20399;-67
2021/08/25 07:02:44;;;;;;;7.10;6.15;;;;;;;20.58;46.75;95764.31;5030930;28;20057;-66
2021/08/25 07:05:10;;;;;;;6.22;5.72;;;;;;;20.14;48.22;95773.31;5030380;28;20044;-67
2021/08/25 07:07:36;;;;;;;5.57;5.18;;;;;;;20.67;46.76;95756.78;5030300;28;20040;-64
2021/08/25 07:10:03;;;;;;;6.95;5.00;;;;;;;20.82;46.39;95749.75;5031879;28;20471;-65
2021/08/25 07:12:28;;;;;;;7.93;5.97;;;;;;;20.93;45.54;95753.44;5030508;28;20495;-65
2021/08/25 07:14:54;;;;;;;8.18;5.32;;;;;;;21.12;45.89;95749.97;5028603;28;20075;-65
2021/08/25 07:17:20;;;;;;;6.57;5.63;;;;;;;21.24;45.34;95768.75;5030129;28;20037;-64
2021/08/25 07:19:45;;;;;;;7.28;4.93;;;;;;;21.79;44.80;95742.34;5028945;28;20124;-65
2021/08/25 07:22:11;;;;;;;6.68;5.05;;;;;;;21.56;44.05;95749.69;5032162;28;20036;-64
2021/08/25 07:24:36;;;;;;;5.28;4.75;;;;;;;21.51;45.01;95767.00;5029618;28;20184;-64
2021/08/25 07:27:01;;;;;;;5.60;4.93;;;;;;;21.87;44.32;95771.13;5029402;28;20030;-65
2021/08/25 07:29:27;;;;;;;6.57;4.75;;;;;;;22.07;43.92;95761.00;5030067;28;20531;-64
2021/08/25 07:31:52;;;;;;;5.32;4.82;;;;;;;21.58;43.83;95764.41;5029676;28;20044;-64
2021/08/25 07:34:18;;;;;;;4.93;4.38;;;;;;;21.57;43.83;95767.50;5030600;28;20033;-65
2021/08/25 07:36:43;;;;;;;4.70;4.28;;;;;;;21.72;43.39;95758.47;5030042;28;20061;-64
2021/08/25 07:39:09;;;;;;;6.30;4.72;;;;;;;21.95;42.52;95753.06;5029278;28;20041;-64
2021/08/25 07:41:34;;;;;;;4.72;4.32;;;;;;;21.85;43.48;95764.47;5029646;28;20116;-65
2021/08/25 07:43:59;;;;;;;5.55;4.25;;;;;;;21.89;42.29;95751.78;5029865;28;20041;-64
2021/08/25 07:46:32;;;;;;;4.68;4.18;;;;;;;22.04;42.16;95742.75;5028107;28;20037;-64
2021/08/25 07:48:59;;;;;;;4.53;4.13;;;;;;;22.43;41.32;95762.38;5031639;28;20032;-64
2021/08/25 07:51:24;;;;;;;4.57;3.90;;;;;;;22.30;41.72;95771.84;5029688;28;20042;-64
2021/08/25 07:53:49;;;;;;;10.50;5.10;;;;;;;22.24;41.49;95763.22;5029101;28;20026;-63
2021/08/25 07:56:15;;;;;;;4.20;3.90;;;;;;;22.16;41.36;95764.28;5029085;28;20048;-64
2021/08/25 07:58:40;;;;;;;7.97;3.78;;;;;;;22.16;41.68;95769.69;5029861;28;20053;-63
2021/08/25 08:01:05;;;;;;;5.05;4.00;;;;;;;21.44;40.91;95678.31;5031604;28;20037;-63
2021/08/25 08:03:31;;;;;;;4.40;3.80;;;;;;;22.71;39.91;95761.19;5029370;28;20041;-63
2021/08/25 08:05:56;;;;;;;5.80;3.65;;;;;;;22.69;39.96;95737.16;5027751;28;20041;-63
2021/08/25 08:08:25;;;;;;;4.93;3.95;;;;;;;22.86;39.94;95716.84;5028867;28;20061;-63
2021/08/25 08:10:50;;;;;;;5.75;5.10;;;;;;;22.67;40.51;95765.78;5029171;28;20053;-63
2021/08/25 08:13:15;;;;;;;4.55;3.97;;;;;;;22.16;41.86;95758.06;5031287;28;20029;-63
2021/08/25 08:15:41;;;;;;;8.45;4.70;;;;;;;22.38;41.09;95753.78;5028754;28;20115;-63
2021/08/25 08:18:13;;;;;;;5.82;4.65;;;;;;;22.46;40.53;95755.41;5028973;28;20088;-63
2021/08/25 08:20:38;;;;;;;4.95;4.38;;;;;;;22.89;40.20;95747.91;5029167;28;20514;-63
2021/08/25 08:23:04;;;;;;;4.57;3.83;;;;;;;22.66;40.62;95778.56;5029016;28;20041;-63
2021/08/25 08:25:29;;;;;;;4.35;3.95;;;;;;;22.90;40.59;95784.75;5026901;28;20036;-63
2021/08/25 08:27:54;;;;;;;4.32;3.92;;;;;;;22.86;39.60;95767.59;5030802;28;20463;-63
2021/08/25 08:30:20;;;;;;;4.45;4.00;;;;;;;23.07;39.09;95776.81;5028858;28;20574;-66
2021/08/25 08:32:45;;;;;;;5.22;4.72;;;;;;;22.06;41.31;95773.78;5028934;28;20072;-62
2021/08/25 08:35:11;;;;;;;7.28;4.38;;;;;;;21.94;41.43;95773.16;5044095;28;20044;-61
2021/08/25 08:37:36;;;;;;;5.65;4.47;;;;;;;22.21;41.51;95776.72;5028579;28;20432;-62
2021/08/25 08:40:03;;;;;;;5.13;4.63;;;;;;;;;;5029143;28;20021;-63
2021/08/25 08:42:34;;;;;;;4.63;4.22;;;;;;;21.80;42.30;95785.34;5028704;28;20033;-63
2021/08/25 08:45:02;;;;;;;5.03;4.53;;;;;;;22.30;41.53;95775.31;5028617;28;20053;-63
2021/08/25 08:47:29;;;;;;;7.15;4.95;;;;;;;21.95;41.15;95767.38;5043931;28;20026;-64
2021/08/25 08:49:57;;;;;;;9.85;4.57;;;;;;;21.89;41.57;95759.91;5028622;28;20483;-63
2021/08/25 08:52:23;;;;;;;4.95;4.55;;;;;;;21.83;41.22;95778.41;5030560;28;20033;-64
2021/08/25 08:54:50;;;;;;;4.78;4.07;;;;;;;21.93;41.33;95766.19;5028307;28;20391;-63
2021/08/25 08:57:17;;;;;;;5.63;4.57;;;;;;;22.06;41.00;95773.78;5028246;28;20037;-63
2021/08/25 08:59:42;;;;;;;4.93;4.43;;;;;;;22.04;41.17;95772.56;5028075;28;20607;-63
2021/08/25 09:02:09;;;;;;;4.60;4.20;;;;;;;22.23;41.24;95763.59;5040884;22;20048;-79
2021/08/25 09:04:36;;;;;;;4.95;4.40;;;;;;;22.20;41.17;95765.09;5008292;28;20026;-76
2021/08/25 09:07:02;;;;;;;4.70;4.25;;;;;;;22.12;41.76;95771.56;5011155;28;20021;-76
2021/08/25 09:09:50;;;;;;;5.82;4.22;;;;;;;22.18;41.09;95766.63;5008867;28;20045;-78
2021/08/25 09:12:15;;;;;;;4.88;4.22;;;;;;;22.31;40.29;95738.16;5008839;28;20030;-76
2021/08/25 09:14:41;;;;;;;5.15;4.10;;;;;;;22.90;38.61;95760.31;5019769;28;20033;-76
2021/08/25 09:17:06;;;;;;;6.68;4.60;;;;;;;22.82;38.54;95767.53;5028849;28;20702;-75
2021/08/25 09:19:37;;;;;;;6.05;4.20;;;;;;;23.33;38.05;95762.38;5044363;28;20025;-76
2021/08/25 09:22:18;;;;;;;4.85;4.40;;;;;;;22.54;39.26;95766.00;5031269;28;20025;-77
2021/08/25 09:24:43;;;;;;;6.28;4.50;;;;;;;23.51;38.23;95759.09;5028308;28;20164;-76
2021/08/25 09:27:14;;;;;;;4.70;4.30;;;;;;;23.12;37.85;95758.66;5028674;28;20042;-76
2021/08/25 09:29:42;;;;;;;4.95;4.13;;;;;;;23.30;38.07;95755.00;5029153;28;20029;-76
2021/08/25 09:32:18;;;;;;;4.75;4.10;;;;;;;23.07;38.91;95757.03;5029160;28;20044;-76
2021/08/25 09:34:43;;;;;;;5.05;4.55;;;;;;;23.08;38.14;95753.19;5028779;28;20049;-73
2021/08/25 09:37:17;;;;;;;4.88;4.38;;;;;;;22.82;38.39;95751.28;5030987;28;20537;-74
2021/08/25 09:39:50;;;;;;;4.78;4.15;;;;;;;23.05;38.07;95754.72;5028488;28;20057;-75
2021/08/25 09:42:18;;;;;;;6.40;4.13;;;;;;;23.29;37.92;95742.59;5028671;28;20245;-76
2021/08/25 09:44:46;;;;;;;6.75;4.20;;;;;;;23.50;37.27;95736.59;5028328;28;20080;-70
2021/08/25 09:47:15;;;;;;;4.88;4.18;;;;;;;23.77;35.94;95750.06;5043625;28;20076;-71
2021/08/25 09:49:40;;;;;;;5.93;4.40;;;;;;;23.10;36.95;95740.03;5028659;28;20030;-71
2021/08/25 09:52:06;;;;;;;4.35;3.75;;;;;;;23.94;37.04;95744.00;5034299;28;20024;-71
2021/08/25 09:54:32;;;;;;;7.57;4.95;;;;;;;23.83;36.15;95741.19;5030530;28;20056;-71
2021/08/25 09:56:57;;;;;;;5.28;4.53;;;;;;;23.99;37.38;95737.47;5031990;28;20044;-71
2021/08/25 09:59:23;;;;;;;5.85;4.57;;;;;;;23.79;36.93;95743.09;5031271;28;20084;-70
2021/08/25 10:01:51;;;;;;;6.28;4.32;;;;;;;23.85;36.20;95735.38;5032251;28;20450;-71
2021/08/25 10:04:17;;;;;;;7.63;4.40;;;;;;;23.59;36.11;95736.28;5033823;28;20582;-70
2021/08/25 10:06:47;;;;;;;4.90;4.40;;;;;;;23.05;36.96;95726.78;5031935;28;20045;-77
2021/08/25 10:09:14;;;;;;;7.55;4.55;;;;;;;23.22;36.35;95711.84;5030259;28;20049;-79
2021/08/25 10:11:51;;;;;;;4.88;4.38;;;;;;;23.12;36.62;95726.09;5030274;28;20088;-74
2021/08/25 10:14:17;;;;;;;4.75;4.00;;;;;;;23.91;35.37;95730.41;5032457;28;20049;-73
2021/08/25 10:16:48;;;;;;;6.15;4.57;;;;;;;23.97;35.10;95726.19;5031137;28;20049;-75
2021/08/25 10:19:35;;;;;;;5.43;4.83;;;;;;;23.99;35.39;95704.84;5033073;28;20029;-75
2021/08/25 10:22:25;;;;;;;5.95;4.35;;;;;;;24.12;34.99;95709.63;5032258;28;20036;-76
2021/08/25 10:24:53;;;;;;;9.05;4.68;;;;;;;24.67;33.36;95708.03;5031202;28;20040;-79
2021/08/25 10:27:20;;;;;;;6.22;4.32;;;;;;;23.77;32.83;95710.13;5032635;28;20398;-79
2021/08/25 10:30:00;;;;;;;4.50;3.78;;;;;;;24.03;33.50;95701.00;5034019;28;20128;-79
2021/08/25 10:32:26;;;;;;;4.82;4.22;;;;;;;23.94;34.10;95697.03;5048686;28;20168;-79
2021/08/25 10:35:13;;;;;;;6.82;4.80;;;;;;;25.06;33.31;95702.75;5033210;28;20053;-79
2021/08/25 10:37:40;;;;;;;5.28;4.50;;;;;;;25.30;33.12;95691.19;5046584;28;20129;-76
2021/08/25 10:40:06;;;;;;;5.15;4.65;;;;;;;24.71;32.53;95687.06;5032184;28;20033;-76
2021/08/25 10:42:44;;;;;;;5.45;3.85;;;;;;;25.44;31.81;95686.94;5030289;28;20057;-76
2021/08/25 10:45:10;;;;;;;5.72;4.75;;;;;;;25.53;31.66;95677.22;5046560;28;20038;-76
2021/08/25 10:48:02;;;;;;;4.95;4.43;;;;;;;25.91;30.70;95689.34;5046408;28;20059;-76
2021/08/25 10:50:46;;;;;;;;;;;;;;;25.70;31.84;95685.81;5047114;28;20100;-76
2021/08/25 10:53:30;;;;;;;4.78;4.30;;;;;;;24.38;33.08;95689.63;5046693;28;20334;-76
2021/08/25 10:56:11;;;;;;;5.22;4.55;;;;;;;24.83;33.21;95656.81;5030107;28;20167;-77
2021/08/25 10:58:45;;;;;;;5.18;4.68;;;;;;;23.99;35.00;95675.72;5031098;28;20036;-76
2021/08/25 11:01:30;;;;;;;5.05;4.38;;;;;;;23.35;35.87;95672.47;5048217;28;20029;-77
2021/08/25 11:03:59;;;;;;;5.00;4.43;;;;;;;23.77;35.53;95660.44;5030994;28;20045;-77
2021/08/25 11:06:34;;;;;;;5.05;4.55;;;;;;;24.54;34.13;95669.50;5045950;28;20572;-77
2021/08/25 11:09:13;;;;;;;6.40;4.45;;;;;;;25.01;32.81;95645.97;5030883;28;20056;-74
2021/08/25 11:11:42;;;;;;;5.00;4.50;;;;;;;25.19;32.22;95651.50;5029428;28;20117;-73
2021/08/25 11:14:08;;;;;;;5.45;4.53;;;;;;;25.54;31.90;95639.88;5030606;28;20068;-73
2021/08/25 11:16:33;;;;;;;5.50;4.45;;;;;;;25.78;32.55;95650.03;5030749;28;20464;-75
2021/08/25 11:18:58;;;;;;;4.85;4.35;;;;;;;25.79;32.19;95648.84;5031750;28;20021;-75
2021/08/25 11:21:24;;;;;;;6.38;5.18;;;;;;;25.19;32.36;95646.06;5030581;28;20061;-75
2021/08/25 11:23:57;;;;;;;4.70;4.20;;;;;;;24.15;33.80;95656.44;5030066;28;20030;-76
2021/08/25 11:26:23;;;;;;;5.50;5.00;;;;;;;24.98;32.91;95614.06;5028505;28;20566;-75
2021/08/25 11:28:49;;;;;;;4.68;4.18;;;;;;;24.99;32.91;95635.47;5029607;28;20072;-75